Time;durP1;ratioP1;P1;durP2;ratioP2;P2;SDS_P1;SDS_P2;PMS_P1;PMS_P2;Temp;Humidity;BMP_temperature;BMP_pressure;BME280_temperature;BME280_humidity;BME280_pressure;Samples;Min_cycle;Max_cycle;Signal;HPM_P1;HPM_P2
2022/04/30 00:02:14;;;;;;;15.08;11.40;;;26.20;94.30;;;;;;1888667;74;21072;-71
2022/04/30 00:04:47;;;;;;;17.70;11.70;;;26.30;94.20;;;;;;1910837;74;21193;-71
2022/04/30 00:07:20;;;;;;;12.45;10.93;;;26.40;94.00;;;;;;1892609;74;21158;-70
2022/04/30 00:09:51;;;;;;;14.55;11.12;;;26.40;93.90;;;;;;1897480;74;21104;-71
2022/04/30 00:12:25;;;;;;;16.93;11.57;;;26.40;93.90;;;;;;1890861;74;21170;-71
2022/04/30 00:14:55;;;;;;;14.13;10.48;;;26.40;93.90;;;;;;1915723;74;21636;-72
2022/04/30 00:17:26;;;;;;;13.40;10.35;;;26.30;93.90;;;;;;1898502;74;21096;-71
2022/04/30 00:19:57;;;;;;;13.80;10.08;;;26.30;93.90;;;;;;1893704;75;21072;-71
2022/04/30 00:22:28;;;;;;;12.03;9.63;;;26.30;94.00;;;;;;1908640;74;21130;-72
2022/04/30 00:25:03;;;;;;;11.65;8.98;;;26.30;94.10;;;;;;1913345;74;21211;-70
2022/04/30 00:27:35;;;;;;;13.93;10.20;;;26.40;94.20;;;;;;1906462;74;21587;-70
2022/04/30 00:30:08;;;;;;;11.83;9.28;;;26.40;94.20;;;;;;1898221;74;21563;-70
2022/04/30 00:32:39;;;;;;;10.75;9.03;;;26.40;94.40;;;;;;1895069;74;21092;-71
2022/04/30 00:35:11;;;;;;;12.00;9.03;;;26.40;94.20;;;;;;1898332;74;21597;-71
2022/04/30 00:37:42;;;;;;;13.68;10.48;;;26.50;94.30;;;;;;1921713;72;21538;-71
2022/04/30 00:40:13;;;;;;;13.05;10.70;;;26.50;94.10;;;;;;1866744;75;21286;-71
2022/04/30 00:42:44;;;;;;;15.20;10.82;;;26.60;94.00;;;;;;1927633;73;21109;-71
2022/04/30 00:45:16;;;;;;;14.33;10.35;;;26.70;93.90;;;;;;1876873;74;21658;-70
2022/04/30 00:47:48;;;;;;;13.60;10.58;;;26.70;93.60;;;;;;1920804;73;21114;-71
2022/04/30 00:50:21;;;;;;;14.30;11.03;;;26.70;93.60;;;;;;1897744;74;21103;-71
2022/04/30 00:52:53;;;;;;;13.70;10.40;;;26.70;93.60;;;;;;1892972;74;21107;-71
2022/04/30 00:55:27;;;;;;;15.13;10.20;;;26.80;93.90;;;;;;1902646;74;21114;-71
2022/04/30 00:58:00;;;;;;;16.37;10.58;;;26.80;93.70;;;;;;1913118;74;21598;-71
2022/04/30 01:00:33;;;;;;;14.65;10.08;;;26.80;93.90;;;;;;1893525;74;21716;-71
2022/04/30 01:03:04;;;;;;;14.98;9.90;;;26.80;93.90;;;;;;1900396;74;21096;-71
2022/04/30 01:05:36;;;;;;;13.83;10.20;;;26.90;93.90;;;;;;1900459;74;21116;-71
2022/04/30 01:08:07;;;;;;;14.07;10.78;;;27.00;93.90;;;;;;1892654;74;21563;-71
2022/04/30 01:10:38;;;;;;;15.75;10.85;;;27.10;93.60;;;;;;1912190;74;21600;-71
2022/04/30 01:13:12;;;;;;;14.65;11.55;;;27.10;93.40;;;;;;1897634;74;21660;-71
2022/04/30 01:15:43;;;;;;;14.23;10.58;;;27.10;93.20;;;;;;1860479;75;21100;-71
2022/04/30 01:18:15;;;;;;;15.43;11.95;;;27.10;92.90;;;;;;1863680;75;21541;-73
2022/04/30 01:20:51;;;;;;;14.63;10.48;;;27.20;93.00;;;;;;1935156;73;21506;-72
2022/04/30 01:23:40;;;;;;;13.93;10.72;;;27.20;92.90;;;;;;1935232;73;21182;-72
2022/04/30 01:26:13;;;;;;;14.05;10.75;;;27.30;93.00;;;;;;1910496;74;21757;-71
2022/04/30 01:28:46;;;;;;;12.93;10.40;;;27.30;92.80;;;;;;1896505;74;21145;-70
2022/04/30 01:38:56;;;;;;;19.32;11.68;;;27.60;92.70;;;;;;1897213;75;21123;-71
2022/04/30 01:41:26;;;;;;;21.20;12.58;;;27.60;92.60;;;;;;1897796;74;21107;-71
2022/04/30 01:43:59;;;;;;;18.27;11.95;;;27.70;92.50;;;;;;1875277;74;21280;-71
2022/04/30 01:46:30;;;;;;;18.87;12.10;;;27.90;91.90;;;;;;1847552;75;21230;-71
2022/04/30 01:49:01;;;;;;;15.48;11.93;;;28.00;91.80;;;;;;1885751;74;21155;-70
2022/04/30 01:51:32;;;;;;;16.48;11.48;;;28.10;91.60;;;;;;1888709;74;21084;-71
2022/04/30 01:54:03;;;;;;;15.80;11.05;;;28.20;91.80;;;;;;1875041;74;21169;-72
2022/04/30 01:56:34;;;;;;;15.25;11.55;;;28.20;91.60;;;;;;1894279;74;21218;-71
2022/04/30 01:59:05;;;;;;;16.82;11.43;;;28.30;91.40;;;;;;1890792;74;21810;-73
2022/04/30 02:01:38;;;;;;;20.75;12.35;;;28.40;91.20;;;;;;1892290;74;21209;-73
2022/04/30 02:04:12;;;;;;;14.40;11.48;;;28.50;91.60;;;;;;1898199;74;21169;-71
2022/04/30 02:06:43;;;;;;;14.70;11.30;;;28.60;91.10;;;;;;1898032;73;21160;-72
2022/04/30 02:09:15;;;;;;;14.93;11.88;;;28.70;90.40;;;;;;1899203;74;21604;-71
2022/04/30 02:11:47;;;;;;;14.23;11.45;;;28.80;90.20;;;;;;1897572;74;21212;-72
2022/04/30 02:14:19;;;;;;;15.23;11.15;;;29.00;90.10;;;;;;1887555;74;21539;-71
2022/04/30 02:16:50;;;;;;;16.97;12.40;;;29.10;90.10;;;;;;1888619;74;21189;-72
2022/04/30 02:19:23;;;;;;;13.05;11.25;;;29.20;89.10;;;;;;1883942;74;21177;-72
2022/04/30 02:21:57;;;;;;;13.22;11.48;;;29.30;88.70;;;;;;1890278;74;21225;-70
2022/04/30 02:24:29;;;;;;;18.82;12.28;;;29.40;87.80;;;;;;1890199;74;21619;-73
2022/04/30 02:27:01;;;;;;;14.58;11.65;;;29.40;87.00;;;;;;1879108;75;21216;-71
2022/04/30 02:29:32;;;;;;;15.85;12.23;;;29.60;87.90;;;;;;1879465;74;21578;-71
2022/04/30 02:32:03;;;;;;;19.02;12.43;;;29.60;86.80;;;;;;1880941;74;21119;-71
2022/04/30 02:34:35;;;;;;;14.90;10.53;;;29.70;87.10;;;;;;1847341;75;21749;-71
2022/04/30 02:37:06;;;;;;;16.55;12.93;;;29.80;86.80;;;;;;1874793;74;22724;-71
2022/04/30 02:39:37;;;;;;;16.60;12.13;;;30.00;86.10;;;;;;1885184;74;21059;-73
2022/04/30 02:42:08;;;;;;;18.10;12.82;;;30.10;86.30;;;;;;1894655;74;21162;-72
2022/04/30 02:44:39;;;;;;;15.65;12.50;;;30.30;85.30;;;;;;1899536;74;21202;-73
2022/04/30 02:47:10;;;;;;;17.73;11.93;;;30.40;84.40;;;;;;1887606;74;21221;-72
2022/04/30 02:49:41;;;;;;;15.58;11.75;;;30.40;84.90;;;;;;1866918;74;22207;-71
2022/04/30 02:52:13;;;;;;;16.42;12.78;;;30.50;84.10;;;;;;1865038;74;21094;-71
2022/04/30 02:54:44;;;;;;;18.37;12.47;;;30.50;83.50;;;;;;1885599;74;21120;-72
2022/04/30 02:57:18;;;;;;;19.15;12.85;;;30.50;84.50;;;;;;1864283;75;21273;-71
2022/04/30 02:59:55;;;;;;;13.85;12.18;;;30.50;83.90;;;;;;1868089;75;21104;-71
2022/04/30 03:02:23;;;;;;;14.68;12.28;;;30.50;83.30;;;;;;1929002;72;21606;-71
2022/04/30 03:04:54;;;;;;;21.25;13.80;;;30.50;83.70;;;;;;1924860;72;21550;-71
2022/04/30 03:07:25;;;;;;;17.10;12.90;;;30.50;84.10;;;;;;1915395;74;21727;-71
2022/04/30 03:09:56;;;;;;;19.73;12.68;;;30.60;84.80;;;;;;1911745;74;21122;-71
2022/04/30 03:12:27;;;;;;;12.98;11.55;;;30.60;84.80;;;;;;1917946;72;21148;-71
2022/04/30 03:14:58;;;;;;;16.57;11.55;;;30.70;84.50;;;;;;1906263;73;21075;-72
2022/04/30 03:22:34;;;;;;;15.23;12.82;;;30.90;83.60;;;;;;1911980;73;21127;-70
2022/04/30 03:25:06;;;;;;;15.65;12.90;;;31.00;82.80;;;;;;1906193;74;21149;-69
2022/04/30 03:27:37;;;;;;;16.05;13.03;;;31.00;82.30;;;;;;1866285;74;21537;-70
2022/04/30 03:30:09;;;;;;;15.75;12.78;;;31.10;82.10;;;;;;1888542;74;21205;-70
2022/04/30 03:32:42;;;;;;;15.83;12.85;;;31.10;82.50;;;;;;1902864;75;21145;-71
2022/04/30 03:35:12;;;;;;;16.95;12.30;;;31.20;82.70;;;;;;1887171;74;21965;-71
2022/04/30 03:37:43;;;;;;;15.32;12.82;;;31.20;81.60;;;;;;1864071;75;21154;-71
2022/04/30 03:40:14;;;;;;;14.35;12.85;;;31.30;82.40;;;;;;1861890;75;21640;-72
2022/04/30 03:42:45;;;;;;;14.80;12.30;;;31.20;81.00;;;;;;1897818;72;21177;-70
2022/04/30 03:45:19;;;;;;;14.98;11.55;;;31.30;80.40;;;;;;1874178;74;21102;-71
2022/04/30 03:47:50;;;;;;;15.88;12.35;;;31.20;81.00;;;;;;1891729;74;21261;-71
2022/04/30 03:50:30;;;;;;;13.58;11.15;;;31.20;81.90;;;;;;1877261;75;21075;-71
2022/04/30 03:53:01;;;;;;;14.80;12.60;;;31.20;82.70;;;;;;1889103;74;21100;-71
2022/04/30 03:55:33;;;;;;;13.30;11.00;;;31.30;82.50;;;;;;1883292;75;21558;-72
2022/04/30 03:58:04;;;;;;;17.07;12.10;;;31.30;80.80;;;;;;1873789;75;21100;-72
2022/04/30 04:00:35;;;;;;;13.68;11.95;;;31.40;85.30;;;;;;1899239;74;21143;-72
2022/04/30 04:03:06;;;;;;;15.15;11.50;;;31.40;82.20;;;;;;1882618;73;21145;-71
2022/04/30 04:05:44;;;;;;;13.45;11.40;;;31.50;81.00;;;;;;1864714;74;21161;-70
2022/04/30 04:08:14;;;;;;;15.00;12.18;;;31.80;81.10;;;;;;1869336;75;21614;-71
2022/04/30 04:10:45;;;;;;;13.38;10.88;;;31.70;81.30;;;;;;1891188;75;21100;-71
2022/04/30 04:18:24;;;;;;;20.27;12.50;;;31.80;82.00;;;;;;1874816;74;21597;-71
2022/04/30 04:20:56;;;;;;;12.90;11.48;;;31.80;82.20;;;;;;1882301;75;21173;-71
2022/04/30 04:25:58;;;;;;;18.10;12.37;;;31.80;85.00;;;;;;1899512;74;21141;-71
2022/04/30 04:26:01;;;;;;;14.43;11.70;;;32.00;81.30;;;;;;1880683;75;21686;-71
2022/04/30 04:28:32;;;;;;;13.43;11.57;;;32.10;80.60;;;;;;1890523;74;21214;-72
2022/04/30 04:31:03;;;;;;;15.88;11.78;;;32.20;80.20;;;;;;1886645;75;21733;-72
2022/04/30 04:33:35;;;;;;;13.90;11.25;;;32.30;79.80;;;;;;1861008;74;21132;-72
2022/04/30 04:36:06;;;;;;;13.03;11.00;;;32.40;78.60;;;;;;1908535;74;21551;-70
2022/04/30 04:38:37;;;;;;;14.43;11.00;;;32.50;77.80;;;;;;1908752;74;21167;-71
2022/04/30 04:41:08;;;;;;;13.03;10.53;;;32.60;77.30;;;;;;1915735;73;21550;-71
2022/04/30 04:43:39;;;;;;;13.83;10.55;;;32.70;76.40;;;;;;1920076;73;21210;-72
2022/04/30 04:46:10;;;;;;;14.75;10.60;;;32.70;76.30;;;;;;1910680;73;21066;-71
2022/04/30 04:48:41;;;;;;;11.75;10.65;;;32.70;75.60;;;;;;1893434;75;21186;-70
2022/04/30 04:51:13;;;;;;;12.43;10.98;;;32.70;76.10;;;;;;1892578;74;21245;-71
2022/04/30 04:53:49;;;;;;;12.28;10.98;;;32.80;75.50;;;;;;1895661;75;21115;-81
2022/04/30 04:56:19;;;;;;;13.68;11.08;;;33.00;75.40;;;;;;1896184;75;21583;-81
2022/04/30 04:58:51;;;;;;;12.88;10.88;;;33.00;76.30;;;;;;1909702;73;21190;-71
2022/04/30 05:01:23;;;;;;;11.85;10.65;;;33.20;75.10;;;;;;1855853;76;21228;-72
2022/04/30 05:03:54;;;;;;;13.38;11.73;;;33.20;74.80;;;;;;1867420;76;21157;-72
2022/04/30 05:06:25;;;;;;;15.32;11.38;;;33.10;74.70;;;;;;1884926;74;21124;-71
2022/04/30 05:08:56;;;;;;;13.75;11.57;;;33.10;74.90;;;;;;1889203;74;21097;-72
2022/04/30 05:11:27;;;;;;;15.25;11.90;;;33.10;75.30;;;;;;1903799;74;21100;-71
2022/04/30 05:14:03;;;;;;;13.43;11.38;;;33.10;74.30;;;;;;1916035;75;21124;-73
2022/04/30 05:16:34;;;;;;;12.73;11.45;;;33.20;74.60;;;;;;1887190;73;21083;-73
2022/04/30 05:19:05;;;;;;;14.33;11.45;;;33.20;74.80;;;;;;1880479;75;21107;-73
2022/04/30 05:21:36;;;;;;;15.03;10.90;;;33.20;74.10;;;;;;1872187;75;21160;-72
2022/04/30 05:24:07;;;;;;;13.55;10.53;;;33.30;73.00;;;;;;1893401;74;21190;-72
2022/04/30 05:26:38;;;;;;;13.25;11.28;;;33.20;72.10;;;;;;1877435;75;21103;-73
2022/04/30 05:29:09;;;;;;;14.58;11.50;;;33.20;73.10;;;;;;1889140;75;21107;-73
2022/04/30 05:31:39;;;;;;;13.98;11.68;;;33.00;74.00;;;;;;1885119;74;21072;-71
2022/04/30 05:34:11;;;;;;;14.25;11.90;;;32.90;75.10;;;;;;1899995;74;21124;-72
2022/04/30 05:36:42;;;;;;;12.30;11.03;;;32.70;75.10;;;;;;1898111;74;21158;-73
2022/04/30 05:39:12;;;;;;;13.58;12.18;;;32.70;75.10;;;;;;1907305;74;21205;-73
2022/04/30 05:41:44;;;;;;;14.87;12.03;;;32.80;75.90;;;;;;1846461;75;21632;-73
2022/04/30 05:44:15;;;;;;;13.53;12.07;;;32.80;75.30;;;;;;1884080;75;21693;-72
2022/04/30 05:46:46;;;;;;;12.98;11.68;;;33.00;74.80;;;;;;1896102;75;21126;-71
2022/04/30 05:49:17;;;;;;;12.75;11.45;;;33.10;75.00;;;;;;1886942;75;21170;-73
2022/04/30 05:51:52;;;;;;;13.68;12.10;;;33.10;74.70;;;;;;1882412;74;21564;-72
2022/04/30 05:54:21;;;;;;;13.38;12.07;;;33.20;74.20;;;;;;1895241;75;21095;-72
2022/04/30 05:56:58;;;;;;;14.33;12.80;;;33.30;74.00;;;;;;1891870;74;21535;-72
2022/04/30 05:59:28;;;;;;;;;;;33.30;73.30;;;;;;1875686;75;21085;-73
2022/04/30 06:01:59;;;;;;;16.73;12.60;;;33.40;73.40;;;;;;1870374;74;20122;-72
2022/04/30 06:04:32;;;;;;;17.67;14.25;;;33.40;73.30;;;;;;1871893;75;21159;-73
2022/04/30 06:07:03;;;;;;;13.25;11.90;;;33.50;73.70;;;;;;1887468;74;21159;-73
2022/04/30 06:09:34;;;;;;;13.35;11.70;;;33.70;73.20;;;;;;1900215;74;21149;-71
2022/04/30 06:12:07;;;;;;;12.88;11.50;;;33.80;71.80;;;;;;1872753;76;21111;-75
2022/04/30 06:14:38;;;;;;;15.10;12.33;;;33.80;71.10;;;;;;1868893;76;21090;-72
2022/04/30 06:17:10;;;;;;;13.28;11.80;;;33.70;72.50;;;;;;1882973;74;21169;-73
2022/04/30 06:19:43;;;;;;;13.95;11.90;;;33.70;71.50;;;;;;1866176;75;21204;-73
2022/04/30 06:22:13;;;;;;;13.35;11.88;;;33.60;71.40;;;;;;1887890;74;21147;-72
2022/04/30 06:24:45;;;;;;;15.18;12.25;;;33.60;71.80;;;;;;1908112;74;21219;-73
2022/04/30 06:27:16;;;;;;;13.83;11.83;;;33.50;71.90;;;;;;1887408;74;21276;-71
2022/04/30 06:29:50;;;;;;;12.25;10.90;;;33.50;71.30;;;;;;1891642;74;21074;-71
2022/04/30 06:32:20;;;;;;;12.68;11.48;;;33.50;70.60;;;;;;1899246;75;21113;-71
2022/04/30 06:34:51;;;;;;;12.88;11.38;;;33.50;71.20;;;;;;1906100;74;21712;-70
2022/04/30 06:37:23;;;;;;;17.02;12.33;;;33.50;70.90;;;;;;1882979;74;21123;-71
2022/04/30 06:39:54;;;;;;;13.50;11.65;;;33.40;71.20;;;;;;1902283;73;21194;-71
2022/04/30 06:42:27;;;;;;;13.00;11.70;;;33.40;71.90;;;;;;1907750;74;21103;-71
2022/04/30 06:45:00;;;;;;;12.95;10.82;;;33.40;72.00;;;;;;1906076;74;21220;-72
2022/04/30 06:47:31;;;;;;;12.03;10.78;;;33.40;70.80;;;;;;1908460;74;21095;-72
2022/04/30 06:50:03;;;;;;;13.70;11.28;;;33.40;70.90;;;;;;1919530;74;21504;-71
2022/04/30 06:52:34;;;;;;;11.60;10.40;;;33.40;70.30;;;;;;1911873;73;21146;-70
2022/04/30 06:57:38;;;;;;;12.28;10.45;;;33.40;70.50;;;;;;1916556;73;21630;-70
2022/04/30 07:02:43;;;;;;;14.53;10.45;;;33.50;69.40;;;;;;1887231;75;21551;-71
2022/04/30 07:05:14;;;;;;;13.83;10.88;;;33.60;69.10;;;;;;1888015;74;21302;-70
2022/04/30 07:07:45;;;;;;;11.90;10.53;;;33.60;69.30;;;;;;1912964;74;21146;-70
2022/04/30 07:10:16;;;;;;;11.45;10.05;;;33.60;69.40;;;;;;1921854;74;21648;-71
2022/04/30 07:12:47;;;;;;;11.53;9.90;;;33.70;68.70;;;;;;1919158;74;21092;-70
2022/04/30 07:15:18;;;;;;;12.28;10.58;;;33.60;69.30;;;;;;1908571;74;21172;-70
2022/04/30 07:17:51;;;;;;;11.60;10.40;;;33.50;68.60;;;;;;1916502;74;21079;-72
2022/04/30 07:20:22;;;;;;;11.38;10.10;;;33.40;68.90;;;;;;1897336;75;21104;-71
2022/04/30 07:22:54;;;;;;;10.90;9.80;;;33.40;69.20;;;;;;1913494;74;21254;-71
2022/04/30 07:25:25;;;;;;;11.12;9.63;;;33.40;69.60;;;;;;1907135;74;21139;-70
2022/04/30 07:27:56;;;;;;;11.28;9.40;;;33.40;70.60;;;;;;1904303;74;21573;-71
2022/04/30 07:30:27;;;;;;;15.18;10.28;;;33.50;68.40;;;;;;1917410;74;21175;-70
2022/04/30 07:32:58;;;;;;;13.00;9.73;;;33.50;69.00;;;;;;1903421;74;21142;-70
2022/04/30 07:35:29;;;;;;;11.65;10.18;;;33.60;69.60;;;;;;1887940;75;21540;-71
2022/04/30 07:38:00;;;;;;;12.18;10.20;;;33.60;69.20;;;;;;1893181;74;21170;-72
2022/04/30 07:40:31;;;;;;;13.15;10.13;;;33.70;68.00;;;;;;1894523;75;21138;-72
2022/04/30 07:43:03;;;;;;;13.28;10.05;;;33.70;67.90;;;;;;1892640;75;21166;-72
2022/04/30 07:45:34;;;;;;;12.93;10.00;;;33.70;68.10;;;;;;1890413;75;21162;-71
2022/04/30 07:48:11;;;;;;;13.10;10.30;;;33.70;67.90;;;;;;1869925;75;21209;-72
2022/04/30 07:50:44;;;;;;;10.85;9.75;;;33.70;67.20;;;;;;1912296;74;21166;-71
2022/04/30 07:53:16;;;;;;;10.15;9.05;;;33.70;66.40;;;;;;1907271;74;21223;-72
2022/04/30 07:55:47;;;;;;;13.05;9.80;;;33.60;66.90;;;;;;1890008;75;21111;-72
2022/04/30 07:58:20;;;;;;;10.03;9.05;;;33.70;67.20;;;;;;1866240;75;21217;-73
2022/04/30 08:00:51;;;;;;;11.25;8.70;;;33.70;66.50;;;;;;1935600;73;21103;-72
2022/04/30 08:03:22;;;;;;;9.50;8.60;;;33.60;66.50;;;;;;1939136;73;21160;-72
2022/04/30 08:05:53;;;;;;;10.00;9.00;;;33.60;66.20;;;;;;1936116;73;21153;-72
2022/04/30 08:08:24;;;;;;;11.40;9.35;;;33.60;67.20;;;;;;1899933;74;21368;-72
2022/04/30 08:10:54;;;;;;;10.43;9.28;;;33.60;66.40;;;;;;1908685;73;21560;-71
2022/04/30 08:13:26;;;;;;;9.58;8.40;;;33.50;66.70;;;;;;1913466;73;21096;-71
2022/04/30 08:15:57;;;;;;;11.63;8.65;;;33.60;66.70;;;;;;1897888;73;21141;-71
2022/04/30 08:18:29;;;;;;;10.43;9.13;;;33.60;66.90;;;;;;1904846;73;21099;-71
2022/04/30 08:21:00;;;;;;;12.73;8.73;;;33.60;66.80;;;;;;1890011;75;21108;-70
2022/04/30 08:23:33;;;;;;;12.25;8.93;;;33.60;66.60;;;;;;1895832;74;21107;-71
2022/04/30 08:26:05;;;;;;;13.53;9.58;;;33.60;67.00;;;;;;1896777;74;21680;-70
2022/04/30 08:28:36;;;;;;;10.48;9.38;;;33.60;67.60;;;;;;1897447;74;21158;-72
2022/04/30 08:31:07;;;;;;;10.70;9.35;;;33.60;67.80;;;;;;1898389;74;21099;-72
2022/04/30 08:33:40;;;;;;;11.45;9.33;;;33.60;68.10;;;;;;1890998;74;21563;-72
2022/04/30 08:36:11;;;;;;;10.23;8.73;;;33.60;67.50;;;;;;1892502;74;22432;-72
2022/04/30 08:38:42;;;;;;;10.03;9.03;;;33.60;66.00;;;;;;1888704;74;21217;-72
2022/04/30 08:41:14;;;;;;;10.00;9.00;;;33.60;67.30;;;;;;1921870;72;21848;-72
2022/04/30 08:43:48;;;;;;;10.65;9.55;;;33.60;67.50;;;;;;1936196;72;21639;-72
2022/04/30 08:46:27;;;;;;;10.58;9.48;;;33.60;67.50;;;;;;1855916;75;21193;-72
2022/04/30 08:48:58;;;;;;;10.75;9.65;;;33.60;68.30;;;;;;1864197;75;21089;-72
2022/04/30 08:51:29;;;;;;;10.85;9.85;;;33.50;68.30;;;;;;1922515;73;21158;-72
2022/04/30 08:54:00;;;;;;;12.20;9.93;;;33.50;68.50;;;;;;1906684;74;21531;-71
2022/04/30 08:56:33;;;;;;;11.43;9.40;;;33.40;68.70;;;;;;1861543;75;21566;-71
2022/04/30 08:59:05;;;;;;;11.53;10.35;;;33.40;68.80;;;;;;1898475;75;21103;-72
2022/04/30 09:01:40;;;;;;;13.05;9.60;;;33.30;69.30;;;;;;1873564;75;21076;-70
2022/04/30 09:04:11;;;;;;;10.30;9.30;;;33.30;69.30;;;;;;1899052;75;21564;-69
2022/04/30 09:06:45;;;;;;;16.48;10.18;;;33.20;68.80;;;;;;1890846;75;21144;-70
2022/04/30 09:09:18;;;;;;;11.20;9.50;;;33.20;68.80;;;;;;1894813;74;21163;-69
2022/04/30 09:11:49;;;;;;;10.32;8.65;;;33.20;68.60;;;;;;1892005;74;21174;-70
2022/04/30 09:14:31;;;;;;;11.90;9.55;;;33.20;69.20;;;;;;1890157;74;21178;-70
2022/04/30 09:17:05;;;;;;;10.90;9.55;;;33.20;69.70;;;;;;1849000;75;21606;-70
2022/04/30 09:19:39;;;;;;;12.73;9.65;;;33.20;68.90;;;;;;1865306;75;21711;-70
2022/04/30 09:22:10;;;;;;;15.63;9.40;;;33.20;69.60;;;;;;1902222;74;21797;-70
2022/04/30 09:24:43;;;;;;;12.05;10.28;;;33.10;70.10;;;;;;1900782;74;21139;-72
2022/04/30 09:27:18;;;;;;;13.48;9.50;;;33.10;70.10;;;;;;1883580;74;21196;-72
2022/04/30 09:29:49;;;;;;;14.13;9.93;;;33.00;69.70;;;;;;1892769;74;21512;-73
2022/04/30 09:32:22;;;;;;;12.00;9.65;;;32.90;69.60;;;;;;1892787;74;21532;-72
2022/04/30 09:40:01;;;;;;;13.43;10.53;;;32.80;70.90;;;;;;1896802;74;21131;-72
2022/04/30 09:42:34;;;;;;;11.68;9.65;;;32.70;69.90;;;;;;1896779;74;21660;-82
2022/04/30 09:45:07;;;;;;;10.58;8.58;;;32.70;70.00;;;;;;1878375;74;21725;-81
2022/04/30 09:47:38;;;;;;;13.80;9.73;;;32.70;69.20;;;;;;1907676;73;21862;-81
2022/04/30 09:55:16;;;;;;;10.53;9.38;;;32.60;70.80;;;;;;1877119;74;21163;-80
2022/04/30 09:57:54;;;;;;;10.58;9.15;;;32.70;70.40;;;;;;1888817;75;21181;-82
2022/04/30 10:00:31;;;;;;;11.80;9.20;;;32.60;70.50;;;;;;1906502;74;21124;-81
2022/04/30 10:03:08;;;;;;;12.82;9.20;;;32.60;69.40;;;;;;1921906;74;21158;-81
2022/04/30 10:05:50;;;;;;;;;;;;;;;;;;;;;
2022/04/30 10:08:20;;;;;;;12.33;10.28;;;32.60;70.30;;;;;;1861905;76;21136;-80
2022/04/30 10:10:52;;;;;;;13.43;10.18;;;32.60;71.10;;;;;;1866754;75;21108;-82
2022/04/30 10:13:25;;;;;;;12.30;10.32;;;32.60;71.50;;;;;;1873228;75;21108;-81
2022/04/30 10:16:02;;;;;;;10.90;9.78;;;32.60;71.30;;;;;;1881725;74;21628;-83
2022/04/30 10:18:42;;;;;;;11.60;9.15;;;32.50;70.60;;;;;;1882087;74;21173;-81
2022/04/30 10:21:18;;;;;;;13.88;9.83;;;32.50;70.30;;;;;;1897821;73;21131;-81
2022/04/30 10:23:49;;;;;;;13.38;10.23;;;32.50;70.50;;;;;;1890243;74;21351;-81
2022/04/30 10:26:20;;;;;;;13.90;10.10;;;32.40;70.60;;;;;;1873895;74;21188;-81
2022/04/30 10:28:55;;;;;;;11.73;10.08;;;32.50;70.60;;;;;;1888494;74;21144;-80
2022/04/30 10:31:26;;;;;;;11.65;10.45;;;32.50;71.00;;;;;;1888301;74;21127;-80
2022/04/30 10:33:57;;;;;;;11.10;9.98;;;32.50;71.10;;;;;;1876371;74;21253;-81
2022/04/30 10:36:31;;;;;;;13.38;10.28;;;32.40;71.10;;;;;;1886056;74;21280;-80
2022/04/30 10:39:09;;;;;;;13.18;10.95;;;32.40;71.00;;;;;;1866491;76;21213;-81
2022/04/30 10:41:36;;;;;;;13.20;11.18;;;32.40;71.00;;;;;;1870745;74;21130;-80
2022/04/30 10:44:08;;;;;;;13.28;11.30;;;32.30;70.70;;;;;;1872896;74;21130;-80
2022/04/30 10:46:42;;;;;;;16.45;10.95;;;32.40;71.60;;;;;;1889731;74;21169;-80
2022/04/30 10:49:13;;;;;;;15.65;11.38;;;32.30;71.70;;;;;;1906286;73;21083;-80
2022/04/30 10:51:45;;;;;;;13.18;10.30;;;32.30;72.10;;;;;;1894488;74;21109;-81
2022/04/30 10:54:18;;;;;;;12.58;10.82;;;32.30;71.80;;;;;;1862900;74;21236;-80
2022/04/30 10:56:53;;;;;;;14.47;11.12;;;32.30;71.80;;;;;;1882971;73;21181;-82
2022/04/30 10:59:26;;;;;;;14.25;11.28;;;32.20;71.80;;;;;;1868094;74;21107;-80
2022/04/30 11:01:56;;;;;;;14.15;10.90;;;32.20;71.80;;;;;;1897045;74;21140;-81
2022/04/30 11:04:28;;;;;;;12.20;10.98;;;32.20;71.20;;;;;;1891761;73;21059;-81
2022/04/30 11:07:00;;;;;;;11.00;9.93;;;32.20;72.00;;;;;;1889440;74;21078;-80
2022/04/30 11:09:32;;;;;;;15.05;11.40;;;32.20;72.00;;;;;;1890462;74;21096;-81
2022/04/30 11:12:03;;;;;;;13.60;11.05;;;32.20;71.60;;;;;;1878320;76;21195;-80
2022/04/30 11:14:39;;;;;;;13.83;11.10;;;32.10;71.80;;;;;;1874284;76;21163;-79
2022/04/30 11:17:10;;;;;;;14.20;11.50;;;32.20;72.00;;;;;;1847955;76;21902;-81
2022/04/30 11:19:42;;;;;;;11.75;10.40;;;32.20;72.10;;;;;;1880257;76;21296;-80
2022/04/30 11:22:17;;;;;;;12.78;10.55;;;32.20;71.80;;;;;;1888592;75;21520;-81
2022/04/30 11:24:48;;;;;;;12.53;10.32;;;32.10;71.70;;;;;;1878621;75;21077;-80
2022/04/30 11:27:20;;;;;;;11.65;10.43;;;32.10;72.80;;;;;;1887973;75;21108;-81
2022/04/30 11:29:53;;;;;;;12.03;10.78;;;32.10;71.80;;;;;;1884153;76;21662;-81
2022/04/30 11:32:27;;;;;;;;;;;32.10;72.00;;;;;;1898692;74;21096;-81
2022/04/30 11:35:00;;;;;;;13.43;11.15;;;32.10;72.30;;;;;;1881901;76;20435;-81
2022/04/30 11:37:33;;;;;;;13.50;10.80;;;32.10;72.20;;;;;;1881420;76;21157;-80
2022/04/30 11:40:05;;;;;;;15.93;11.15;;;32.00;72.20;;;;;;1871370;75;21093;-81
2022/04/30 11:42:36;;;;;;;18.27;12.63;;;32.00;72.70;;;;;;1883848;75;21152;-80
2022/04/30 11:45:08;;;;;;;14.18;12.13;;;32.00;73.20;;;;;;1910808;74;21166;-80
2022/04/30 11:47:44;;;;;;;13.65;12.20;;;32.00;73.60;;;;;;1910727;74;21144;-80
2022/04/30 11:50:15;;;;;;;16.25;12.25;;;31.90;73.90;;;;;;1914328;74;21508;-80
2022/04/30 11:52:47;;;;;;;16.85;13.00;;;31.90;74.40;;;;;;1867872;75;21123;-80
2022/04/30 11:55:20;;;;;;;16.82;14.35;;;31.90;74.60;;;;;;1871732;76;21236;-81
2022/04/30 11:57:51;;;;;;;20.57;15.53;;;31.90;74.70;;;;;;1880822;75;21072;-80
2022/04/30 12:00:22;;;;;;;18.50;15.10;;;31.80;75.10;;;;;;1878583;75;21182;-80
2022/04/30 12:02:54;;;;;;;19.32;15.00;;;31.80;75.10;;;;;;1873644;76;21106;-81
2022/04/30 12:05:26;;;;;;;19.55;11.53;;;31.80;75.10;;;;;;1879782;76;21646;-81
2022/04/30 12:07:59;;;;;;;17.57;9.53;;;31.80;75.90;;;;;;1871577;76;21093;-80
2022/04/30 12:10:30;;;;;;;13.70;8.90;;;31.60;76.60;;;;;;1865295;76;21108;-80
2022/04/30 12:13:01;;;;;;;17.30;8.78;;;31.40;77.40;;;;;;1882256;76;21116;-81
2022/04/30 12:15:33;;;;;;;9.38;7.50;;;31.30;78.30;;;;;;1861169;76;21257;-80
2022/04/30 12:25:44;;;;;;;14.10;6.10;;;30.50;80.90;;;;;;1883791;76;21175;-80
2022/04/30 12:28:16;;;;;;;11.25;6.05;;;30.30;81.90;;;;;;1899020;75;21170;-80
2022/04/30 12:30:52;;;;;;;8.05;5.78;;;30.20;82.70;;;;;;1869481;76;21137;-81
2022/04/30 12:33:28;;;;;;;8.05;5.10;;;30.10;82.40;;;;;;1868108;76;21534;-79
2022/04/30 12:35:59;;;;;;;7.15;4.80;;;30.00;82.30;;;;;;1882494;76;21113;-80
2022/04/30 12:38:46;;;;;;;8.45;4.80;;;29.90;82.80;;;;;;1872252;75;21076;-80
2022/04/30 12:41:32;;;;;;;7.97;5.30;;;29.90;82.50;;;;;;1856462;76;21140;-81
2022/04/30 12:43:56;;;;;;;9.33;5.67;;;29.80;82.40;;;;;;1884590;75;21205;-81
2022/04/30 12:46:30;;;;;;;9.65;5.30;;;29.80;82.60;;;;;;1862305;76;21159;-80
2022/04/30 12:49:07;;;;;;;8.10;5.28;;;29.80;83.00;;;;;;1898544;74;21139;-81
2022/04/30 12:51:39;;;;;;;9.30;6.35;;;29.80;83.30;;;;;;1865314;76;21225;-80
2022/04/30 12:54:13;;;;;;;10.55;6.45;;;29.80;84.10;;;;;;1903696;74;21161;-80
2022/04/30 12:56:46;;;;;;;10.03;6.60;;;29.80;84.70;;;;;;1861072;76;21078;-80
2022/04/30 12:59:21;;;;;;;9.73;6.80;;;29.70;84.20;;;;;;1885418;76;21155;-80
2022/04/30 13:01:50;;;;;;;8.33;6.28;;;29.70;85.20;;;;;;1857888;75;21067;-81
2022/04/30 13:04:26;;;;;;;13.65;6.42;;;29.70;84.50;;;;;;1882348;74;21177;-82
2022/04/30 13:06:56;;;;;;;8.60;6.55;;;29.70;84.40;;;;;;1917223;73;21543;-81
2022/04/30 13:14:36;;;;;;;8.08;6.00;;;29.70;83.70;;;;;;1893954;74;21105;-80
2022/04/30 13:17:07;;;;;;;8.28;5.60;;;29.60;82.80;;;;;;1900280;73;21583;-81
2022/04/30 13:19:40;;;;;;;9.00;5.50;;;29.50;83.50;;;;;;1891571;74;21122;-81
2022/04/30 13:22:12;;;;;;;7.85;5.87;;;29.50;83.80;;;;;;1894930;73;21555;-81
2022/04/30 13:24:43;;;;;;;9.85;5.58;;;29.50;84.30;;;;;;1901724;73;21158;-80
2022/04/30 13:27:15;;;;;;;8.80;6.08;;;29.40;84.60;;;;;;1893456;73;21102;-80
2022/04/30 13:29:46;;;;;;;9.43;6.25;;;29.30;83.90;;;;;;1897064;74;21089;-80
2022/04/30 13:32:18;;;;;;;12.03;6.05;;;29.30;85.30;;;;;;1858250;75;21134;-81
2022/04/30 13:34:49;;;;;;;10.35;7.10;;;29.30;85.60;;;;;;1897147;73;21197;-81
2022/04/30 13:37:20;;;;;;;14.35;7.25;;;29.20;84.90;;;;;;1857720;75;21158;-82
2022/04/30 13:39:51;;;;;;;8.83;6.53;;;29.30;86.20;;;;;;1872737;74;21168;-80
2022/04/30 13:42:22;;;;;;;11.48;7.12;;;29.30;86.30;;;;;;1889989;74;21196;-81
2022/04/30 13:44:53;;;;;;;14.85;6.60;;;29.30;85.60;;;;;;1890941;74;21209;-80